sensor_id;sensor_type;location;lat;lon;timestamp;pressure;altitude;pressure_sealevel;temperature;humidity
62458;BME280;48509;52.122;5.250;2023-02-15T00:00:07;102924.0;;;3.24;100.0
62458;BME280;48509;52.122;5.250;2023-02-15T00:01:45;102921.0;;;3.23;100.0
62458;BME280;48509;52.122;5.250;2023-02-15T00:04:58;102919.0;;;3.25;100.0
62458;BME280;48509;52.122;5.250;2023-02-15T00:06:34;102920.0;;;3.18;100.0
62458;BME280;48509;52.122;5.250;2023-02-15T00:08:11;102918.0;;;3.13;100.0
62458;BME280;48509;52.122;5.250;2023-02-15T00:11:40;102920.0;;;3.13;100.0
62458;BME280;48509;52.122;5.250;2023-02-15T00:13:17;102923.0;;;3.18;100.0
62458;BME280;48509;52.122;5.250;2023-02-15T00:14:53;102923.0;;;3.17;100.0
62458;BME280;48509;52.122;5.250;2023-02-15T00:16:29;102919.0;;;3.15;100.0
62458;BME280;48509;52.122;5.250;2023-02-15T00:19:44;102920.0;;;3.22;100.0
62458;BME280;48509;52.122;5.250;2023-02-15T00:21:20;102919.0;;;3.29;100.0
62458;BME280;48509;52.122;5.250;2023-02-15T00:22:57;102921.0;;;3.18;100.0
62458;BME280;48509;52.122;5.250;2023-02-15T00:26:11;102915.00000000001;;;3.07;100.0
62458;BME280;48509;52.122;5.250;2023-02-15T00:27:48;102918.0;;;3.12;100.0
62458;BME280;48509;52.122;5.250;2023-02-15T00:29:26;102917.0;;;3.06;100.0
62458;BME280;48509;52.122;5.250;2023-02-15T00:31:04;102909.99999999999;;;3.11;100.0
62458;BME280;48509;52.122;5.250;2023-02-15T00:34:19;102911.99999999999;;;3.17;100.0
62458;BME280;48509;52.122;5.250;2023-02-15T00:35:56;102904.0;;;3.03;100.0
62458;BME280;48509;52.122;5.250;2023-02-15T00:37:33;102902.0;;;3.01;100.0
62458;BME280;48509;52.122;5.250;2023-02-15T00:40:52;102904.0;;;2.88;100.0
62458;BME280;48509;52.122;5.250;2023-02-15T00:42:28;102905.0;;;2.84;100.0
62458;BME280;48509;52.122;5.250;2023-02-15T00:44:05;102898.0;;;2.77;100.0
62458;BME280;48509;52.122;5.250;2023-02-15T00:45:44;102899.0;;;2.74;100.0
62458;BME280;48509;52.122;5.250;2023-02-15T00:48:57;102898.0;;;2.95;100.0
62458;BME280;48509;52.122;5.250;2023-02-15T00:50:33;102896.0;;;2.79;100.0
62458;BME280;48509;52.122;5.250;2023-02-15T00:52:09;102895.0;;;2.76;100.0
62458;BME280;48509;52.122;5.250;2023-02-15T00:55:22;102895.0;;;2.81;100.0
62458;BME280;48509;52.122;5.250;2023-02-15T00:56:59;102891.00000000001;;;2.72;100.0
62458;BME280;48509;52.122;5.250;2023-02-15T00:58:35;102894.0;;;2.89;100.0
62458;BME280;48509;52.122;5.250;2023-02-15T01:00:13;102893.0;;;2.91;100.0
62458;BME280;48509;52.122;5.250;2023-02-15T01:03:25;102894.0;;;2.99;100.0
62458;BME280;48509;52.122;5.250;2023-02-15T01:05:02;102889.00000000001;;;2.87;100.0
62458;BME280;48509;52.122;5.250;2023-02-15T01:06:37;102889.00000000001;;;2.78;100.0
62458;BME280;48509;52.122;5.250;2023-02-15T01:09:51;102892.0;;;2.7;100.0
62458;BME280;48509;52.122;5.250;2023-02-15T01:11:27;102893.0;;;2.67;100.0
62458;BME280;48509;52.122;5.250;2023-02-15T01:13:03;102890.00000000001;;;2.65;100.0
62458;BME280;48509;52.122;5.250;2023-02-15T01:16:17;102891.00000000001;;;2.66;100.0
62458;BME280;48509;52.122;5.250;2023-02-15T01:17:53;102888.00000000001;;;2.65;100.0
62458;BME280;48509;52.122;5.250;2023-02-15T01:19:30;102891.00000000001;;;2.64;100.0
62458;BME280;48509;52.122;5.250;2023-02-15T01:21:10;102892.0;;;2.65;100.0
62458;BME280;48509;52.122;5.250;2023-02-15T01:24:26;102889.00000000001;;;2.83;100.0
62458;BME280;48509;52.122;5.250;2023-02-15T01:26:03;102876.0;;;2.73;100.0
62458;BME280;48509;52.122;5.250;2023-02-15T01:27:39;102872.0;;;2.91;100.0
62458;BME280;48509;52.122;5.250;2023-02-15T01:30:51;102870.0;;;2.7;100.0
62458;BME280;48509;52.122;5.250;2023-02-15T01:32:28;102867.0;;;2.68;100.0
62458;BME280;48509;52.122;5.250;2023-02-15T01:34:04;102867.0;;;2.74;100.0
62458;BME280;48509;52.122;5.250;2023-02-15T01:37:16;102868.0;;;2.74;100.0
62458;BME280;48509;52.122;5.250;2023-02-15T01:38:52;102865.00000000001;;;2.58;100.0
62458;BME280;48509;52.122;5.250;2023-02-15T01:40:28;102858.99999999999;;;2.56;100.0
62458;BME280;48509;52.122;5.250;2023-02-15T01:42:08;102849.0;;;2.56;100.0
62458;BME280;48509;52.122;5.250;2023-02-15T01:45:27;102855.0;;;2.59;100.0
62458;BME280;48509;52.122;5.250;2023-02-15T01:47:04;102853.0;;;2.62;100.0
62458;BME280;48509;52.122;5.250;2023-02-15T01:48:43;102844.0;;;2.5;100.0
62458;BME280;48509;52.122;5.250;2023-02-15T01:50:27;102845.0;;;2.52;100.0
62458;BME280;48509;52.122;5.250;2023-02-15T01:53:47;102846.0;;;2.56;100.0
62458;BME280;48509;52.122;5.250;2023-02-15T01:55:29;102842.0;;;2.54;100.0
62458;BME280;48509;52.122;5.250;2023-02-15T01:57:13;102843.0;;;2.48;100.0
62458;BME280;48509;52.122;5.250;2023-02-15T01:58:54;102847.0;;;2.4;100.0
62458;BME280;48509;52.122;5.250;2023-02-15T02:02:09;102844.0;;;2.44;100.0
62458;BME280;48509;52.122;5.250;2023-02-15T02:03:55;102843.0;;;2.63;100.0
62458;BME280;48509;52.122;5.250;2023-02-15T02:05:34;102841.00000000001;;;2.5;100.0
62458;BME280;48509;52.122;5.250;2023-02-15T02:07:12;102838.00000000001;;;2.54;100.0
62458;BME280;48509;52.122;5.250;2023-02-15T02:10:28;102834.99999999999;;;2.58;100.0
62458;BME280;48509;52.122;5.250;2023-02-15T02:12:04;102832.0;;;2.6;100.0
62458;BME280;48509;52.122;5.250;2023-02-15T02:13:42;102829.0;;;2.64;100.0
62458;BME280;48509;52.122;5.250;2023-02-15T02:17:09;102824.0;;;2.6;100.0
62458;BME280;48509;52.122;5.250;2023-02-15T02:19:03;102821.0;;;2.48;100.0
62458;BME280;48509;52.122;5.250;2023-02-15T02:21:02;102822.0;;;2.39;100.0
62458;BME280;48509;52.122;5.250;2023-02-15T02:23:20;102822.0;;;2.41;100.0
62458;BME280;48509;52.122;5.250;2023-02-15T02:25:50;102817.0;;;2.52;100.0
62458;BME280;48509;52.122;5.250;2023-02-15T02:33:03;102813.00000000001;;;2.23;100.0
62458;BME280;48509;52.122;5.250;2023-02-15T02:35:45;102808.0;;;2.25;100.0
62458;BME280;48509;52.122;5.250;2023-02-15T02:37:30;102805.0;;;2.31;100.0
62458;BME280;48509;52.122;5.250;2023-02-15T02:39:22;102798.0;;;2.25;100.0
62458;BME280;48509;52.122;5.250;2023-02-15T02:41:09;102798.0;;;2.25;100.0
62458;BME280;48509;52.122;5.250;2023-02-15T02:42:56;102798.0;;;2.27;100.0
62458;BME280;48509;52.122;5.250;2023-02-15T02:46:22;102797.0;;;2.17;100.0
62458;BME280;48509;52.122;5.250;2023-02-15T02:48:04;102801.0;;;2.15;100.0
62458;BME280;48509;52.122;5.250;2023-02-15T02:49:43;102801.0;;;2.27;100.0
62458;BME280;48509;52.122;5.250;2023-02-15T02:51:22;102800.0;;;2.29;100.0
62458;BME280;48509;52.122;5.250;2023-02-15T02:54:35;102793.0;;;2.23;100.0
62458;BME280;48509;52.122;5.250;2023-02-15T02:56:18;102789.00000000001;;;2.31;100.0
62458;BME280;48509;52.122;5.250;2023-02-15T02:58:03;102782.0;;;2.17;100.0
62458;BME280;48509;52.122;5.250;2023-02-15T03:03:10;102781.0;;;2.13;100.0
62458;BME280;48509;52.122;5.250;2023-02-15T03:05:02;102782.0;;;2.12;100.0
62458;BME280;48509;52.122;5.250;2023-02-15T03:06:47;102777.0;;;2.21;100.0
62458;BME280;48509;52.122;5.250;2023-02-15T03:08:31;102772.0;;;2.46;100.0
62458;BME280;48509;52.122;5.250;2023-02-15T03:10:13;102774.0;;;2.36;100.0
62458;BME280;48509;52.122;5.250;2023-02-15T03:13:27;102767.0;;;2.41;100.0
62458;BME280;48509;52.122;5.250;2023-02-15T03:15:08;102767.0;;;2.33;100.0
62458;BME280;48509;52.122;5.250;2023-02-15T03:16:47;102767.0;;;2.19;100.0
62458;BME280;48509;52.122;5.250;2023-02-15T03:18:29;102766.00000000001;;;2.11;100.0
62458;BME280;48509;52.122;5.250;2023-02-15T03:22:06;102765.00000000001;;;2.06;100.0
62458;BME280;48509;52.122;5.250;2023-02-15T03:23:45;102761.99999999999;;;2.04;100.0
62458;BME280;48509;52.122;5.250;2023-02-15T03:25:25;102758.0;;;2.08;100.0
62458;BME280;48509;52.122;5.250;2023-02-15T03:27:06;102758.0;;;2.02;100.0
62458;BME280;48509;52.122;5.250;2023-02-15T03:28:47;102754.0;;;2.06;100.0
62458;BME280;48509;52.122;5.250;2023-02-15T03:32:07;102752.0;;;2.05;100.0
62458;BME280;48509;52.122;5.250;2023-02-15T03:33:50;102753.0;;;2.0;100.0
62458;BME280;48509;52.122;5.250;2023-02-15T03:35:33;102748.0;;;2.14;100.0
62458;BME280;48509;52.122;5.250;2023-02-15T03:37:25;102744.0;;;2.02;100.0
62458;BME280;48509;52.122;5.250;2023-02-15T03:41:22;102742.0;;;2.02;100.0
62458;BME280;48509;52.122;5.250;2023-02-15T03:43:07;102743.0;;;1.97;100.0
62458;BME280;48509;52.122;5.250;2023-02-15T03:44:52;102747.0;;;1.92;100.0
62458;BME280;48509;52.122;5.250;2023-02-15T03:46:39;102748.0;;;1.89;100.0
62458;BME280;48509;52.122;5.250;2023-02-15T03:48:19;102747.0;;;2.02;100.0
62458;BME280;48509;52.122;5.250;2023-02-15T03:50:00;102749.0;;;1.89;100.0
62458;BME280;48509;52.122;5.250;2023-02-15T03:53:22;102749.0;;;1.85;100.0
62458;BME280;48509;52.122;5.250;2023-02-15T03:55:01;102744.0;;;1.82;100.0
62458;BME280;48509;52.122;5.250;2023-02-15T03:56:40;102746.0;;;1.88;100.0
62458;BME280;48509;52.122;5.250;2023-02-15T04:02:31;102736.99999999999;;;1.85;100.0
62458;BME280;48509;52.122;5.250;2023-02-15T04:05:55;102734.99999999999;;;1.88;100.0
62458;BME280;48509;52.122;5.250;2023-02-15T04:07:31;102733.99999999999;;;2.07;100.0
62458;BME280;48509;52.122;5.250;2023-02-15T04:10:56;102733.0;;;2.04;100.0
62458;BME280;48509;52.122;5.250;2023-02-15T04:12:42;102726.0;;;2.02;100.0
62458;BME280;48509;52.122;5.250;2023-02-15T04:17:43;102731.0;;;2.19;100.0
62458;BME280;48509;52.122;5.250;2023-02-15T04:25:18;102734.99999999999;;;2.0;100.0
62458;BME280;48509;52.122;5.250;2023-02-15T04:26:56;102733.0;;;1.95;100.0
62458;BME280;48509;52.122;5.250;2023-02-15T04:28:33;102732.0;;;1.91;100.0
62458;BME280;48509;52.122;5.250;2023-02-15T04:30:11;102729.0;;;1.95;100.0
62458;BME280;48509;52.122;5.250;2023-02-15T04:31:48;102728.0;;;1.94;100.0
62458;BME280;48509;52.122;5.250;2023-02-15T04:35:02;102727.0;;;1.92;100.0
62458;BME280;48509;52.122;5.250;2023-02-15T04:36:39;102723.0;;;1.95;100.0
62458;BME280;48509;52.122;5.250;2023-02-15T04:38:16;102717.0;;;1.89;100.0
62458;BME280;48509;52.122;5.250;2023-02-15T04:39:52;102717.0;;;1.96;100.0
62458;BME280;48509;52.122;5.250;2023-02-15T04:43:05;102713.00000000001;;;1.86;100.0
62458;BME280;48509;52.122;5.250;2023-02-15T04:44:41;102711.99999999999;;;1.86;100.0
62458;BME280;48509;52.122;5.250;2023-02-15T04:46:19;102706.0;;;1.82;100.0
62458;BME280;48509;52.122;5.250;2023-02-15T04:49:31;102704.0;;;1.91;100.0
62458;BME280;48509;52.122;5.250;2023-02-15T04:51:07;102705.0;;;1.96;100.0
62458;BME280;48509;52.122;5.250;2023-02-15T04:52:43;102703.0;;;1.9;100.0
62458;BME280;48509;52.122;5.250;2023-02-15T04:55:56;102708.0;;;1.91;100.0
62458;BME280;48509;52.122;5.250;2023-02-15T04:57:32;102702.0;;;1.95;100.0
62458;BME280;48509;52.122;5.250;2023-02-15T04:59:09;102706.0;;;1.87;100.0
62458;BME280;48509;52.122;5.250;2023-02-15T05:00:46;102703.0;;;1.93;100.0
62458;BME280;48509;52.122;5.250;2023-02-15T05:03:58;102704.0;;;1.88;100.0
62458;BME280;48509;52.122;5.250;2023-02-15T05:05:34;102703.0;;;1.8;100.0
62458;BME280;48509;52.122;5.250;2023-02-15T05:07:10;102699.0;;;1.87;100.0
62458;BME280;48509;52.122;5.250;2023-02-15T05:10:23;102701.0;;;1.91;100.0
62458;BME280;48509;52.122;5.250;2023-02-15T05:11:59;102698.0;;;1.89;100.0
62458;BME280;48509;52.122;5.250;2023-02-15T05:13:35;102705.0;;;1.91;100.0
62458;BME280;48509;52.122;5.250;2023-02-15T05:16:47;102700.0;;;1.98;100.0
62458;BME280;48509;52.122;5.250;2023-02-15T05:18:23;102698.0;;;1.9;100.0
62458;BME280;48509;52.122;5.250;2023-02-15T05:19:59;102694.0;;;1.88;100.0
62458;BME280;48509;52.122;5.250;2023-02-15T05:23:12;102690.00000000001;;;1.8;100.0
62458;BME280;48509;52.122;5.250;2023-02-15T05:28:58;102696.0;;;2.0;100.0
62458;BME280;48509;52.122;5.250;2023-02-15T05:30:34;102693.0;;;2.08;100.0
62458;BME280;48509;52.122;5.250;2023-02-15T05:32:12;102697.0;;;2.06;100.0
62458;BME280;48509;52.122;5.250;2023-02-15T05:35:26;102698.0;;;2.02;100.0
62458;BME280;48509;52.122;5.250;2023-02-15T05:37:02;102692.0;;;2.37;100.0
62458;BME280;48509;52.122;5.250;2023-02-15T05:38:38;102692.0;;;2.09;100.0
62458;BME280;48509;52.122;5.250;2023-02-15T05:41:51;102695.0;;;1.95;100.0
62458;BME280;48509;52.122;5.250;2023-02-15T05:43:27;102695.0;;;1.87;100.0
62458;BME280;48509;52.122;5.250;2023-02-15T05:45:06;102698.0;;;1.85;100.0
62458;BME280;48509;52.122;5.250;2023-02-15T05:48:21;102698.0;;;2.02;100.0
62458;BME280;48509;52.122;5.250;2023-02-15T05:49:58;102702.0;;;2.06;100.0
62458;BME280;48509;52.122;5.250;2023-02-15T05:51:34;102695.0;;;1.9;100.0
62458;BME280;48509;52.122;5.250;2023-02-15T05:53:10;102694.0;;;1.89;100.0
62458;BME280;48509;52.122;5.250;2023-02-15T05:56:23;102691.00000000001;;;1.88;100.0
62458;BME280;48509;52.122;5.250;2023-02-15T05:57:59;102692.0;;;1.88;100.0
62458;BME280;48509;52.122;5.250;2023-02-15T05:59:35;102700.0;;;2.02;100.0
62458;BME280;48509;52.122;5.250;2023-02-15T06:02:50;102696.0;;;2.11;100.0
62458;BME280;48509;52.122;5.250;2023-02-15T06:04:26;102695.0;;;2.15;100.0
62458;BME280;48509;52.122;5.250;2023-02-15T06:06:05;102692.0;;;2.06;100.0
62458;BME280;48509;52.122;5.250;2023-02-15T06:07:42;102692.0;;;1.92;100.0
62458;BME280;48509;52.122;5.250;2023-02-15T06:10:56;102688.00000000001;;;1.87;100.0
62458;BME280;48509;52.122;5.250;2023-02-15T06:12:32;102686.99999999999;;;1.83;100.0
62458;BME280;48509;52.122;5.250;2023-02-15T06:14:08;102686.99999999999;;;1.86;100.0
62458;BME280;48509;52.122;5.250;2023-02-15T06:17:22;102679.0;;;1.8;100.0
62458;BME280;48509;52.122;5.250;2023-02-15T06:18:59;102677.0;;;1.75;100.0
62458;BME280;48509;52.122;5.250;2023-02-15T06:20:36;102678.0;;;1.65;100.0
62458;BME280;48509;52.122;5.250;2023-02-15T06:23:50;102672.0;;;1.66;100.0
62458;BME280;48509;52.122;5.250;2023-02-15T06:25:26;102674.0;;;1.61;100.0
62458;BME280;48509;52.122;5.250;2023-02-15T06:27:02;102670.0;;;1.63;100.0
62458;BME280;48509;52.122;5.250;2023-02-15T06:28:39;102670.0;;;1.69;100.0
62458;BME280;48509;52.122;5.250;2023-02-15T06:31:50;102680.0;;;1.87;100.0
62458;BME280;48509;52.122;5.250;2023-02-15T06:33:27;102674.0;;;1.78;100.0
62458;BME280;48509;52.122;5.250;2023-02-15T06:35:03;102682.0;;;1.84;100.0
62458;BME280;48509;52.122;5.250;2023-02-15T06:38:17;102680.0;;;1.9;100.0
62458;BME280;48509;52.122;5.250;2023-02-15T06:39:53;102674.0;;;1.94;100.0
62458;BME280;48509;52.122;5.250;2023-02-15T06:41:30;102677.0;;;1.91;100.0
62458;BME280;48509;52.122;5.250;2023-02-15T06:44:42;102680.0;;;2.07;100.0
62458;BME280;48509;52.122;5.250;2023-02-15T06:46:18;102682.0;;;2.0;100.0
62458;BME280;48509;52.122;5.250;2023-02-15T06:47:54;102680.0;;;1.91;100.0
62458;BME280;48509;52.122;5.250;2023-02-15T06:49:30;102677.0;;;1.88;100.0
62458;BME280;48509;52.122;5.250;2023-02-15T06:52:42;102677.0;;;1.98;100.0
62458;BME280;48509;52.122;5.250;2023-02-15T06:54:18;102671.0;;;2.09;100.0
62458;BME280;48509;52.122;5.250;2023-02-15T06:56:00;102673.0;;;2.25;100.0
62458;BME280;48509;52.122;5.250;2023-02-15T06:59:13;102675.0;;;2.19;100.0
62458;BME280;48509;52.122;5.250;2023-02-15T07:00:51;102673.0;;;2.31;100.0
62458;BME280;48509;52.122;5.250;2023-02-15T07:02:27;102673.0;;;2.27;100.0
62458;BME280;48509;52.122;5.250;2023-02-15T07:05:39;102674.0;;;2.08;100.0
62458;BME280;48509;52.122;5.250;2023-02-15T07:07:16;102667.0;;;2.29;100.0
62458;BME280;48509;52.122;5.250;2023-02-15T07:08:52;102669.0;;;2.33;100.0
62458;BME280;48509;52.122;5.250;2023-02-15T07:10:28;102673.0;;;2.15;100.0
62458;BME280;48509;52.122;5.250;2023-02-15T07:14:45;102673.0;;;2.02;100.0
62458;BME280;48509;52.122;5.250;2023-02-15T07:17:58;102678.0;;;1.9;100.0
62458;BME280;48509;52.122;5.250;2023-02-15T07:19:34;102677.0;;;2.07;100.0
62458;BME280;48509;52.122;5.250;2023-02-15T07:21:10;102672.0;;;2.19;100.0
62458;BME280;48509;52.122;5.250;2023-02-15T07:24:23;102670.0;;;2.0;100.0
62458;BME280;48509;52.122;5.250;2023-02-15T07:26:00;102665.00000000001;;;2.08;100.0
62458;BME280;48509;52.122;5.250;2023-02-15T07:27:36;102667.0;;;2.25;100.0
62458;BME280;48509;52.122;5.250;2023-02-15T07:30:50;102664.00000000001;;;2.23;100.0
62458;BME280;48509;52.122;5.250;2023-02-15T07:32:27;102656.0;;;2.33;100.0
62458;BME280;48509;52.122;5.250;2023-02-15T07:34:05;102650.0;;;2.25;100.0
62458;BME280;48509;52.122;5.250;2023-02-15T07:35:46;102645.0;;;2.1;100.0
62458;BME280;48509;52.122;5.250;2023-02-15T07:39:00;102646.0;;;2.27;100.0
62458;BME280;48509;52.122;5.250;2023-02-15T07:40:36;102649.0;;;2.34;100.0
62458;BME280;48509;52.122;5.250;2023-02-15T07:42:13;102644.0;;;2.35;100.0
62458;BME280;48509;52.122;5.250;2023-02-15T07:45:25;102641.00000000001;;;2.25;100.0
62458;BME280;48509;52.122;5.250;2023-02-15T07:47:01;102636.99999999999;;;2.39;100.0
62458;BME280;48509;52.122;5.250;2023-02-15T07:48:38;102633.99999999999;;;2.37;100.0
62458;BME280;48509;52.122;5.250;2023-02-15T07:50:16;102627.0;;;2.56;100.0
62458;BME280;48509;52.122;5.250;2023-02-15T07:53:29;102626.0;;;2.54;100.0
62458;BME280;48509;52.122;5.250;2023-02-15T07:55:06;102625.0;;;2.46;100.0
62458;BME280;48509;52.122;5.250;2023-02-15T07:56:43;102628.0;;;2.54;100.0
62458;BME280;48509;52.122;5.250;2023-02-15T07:59:56;102630.0;;;2.56;100.0
62458;BME280;48509;52.122;5.250;2023-02-15T08:01:34;102628.0;;;2.63;100.0
62458;BME280;48509;52.122;5.250;2023-02-15T08:03:15;102626.0;;;2.81;100.0
62458;BME280;48509;52.122;5.250;2023-02-15T08:04:51;102623.0;;;2.81;100.0
62458;BME280;48509;52.122;5.250;2023-02-15T08:08:06;102624.0;;;2.98;100.0
62458;BME280;48509;52.122;5.250;2023-02-15T08:09:43;102622.0;;;3.0;100.0
62458;BME280;48509;52.122;5.250;2023-02-15T08:11:30;102622.0;;;3.03;100.0
62458;BME280;48509;52.122;5.250;2023-02-15T08:14:43;102625.0;;;3.17;100.0
62458;BME280;48509;52.122;5.250;2023-02-15T08:16:22;102617.0;;;3.13;100.0
62458;BME280;48509;52.122;5.250;2023-02-15T08:18:00;102616.00000000001;;;3.15;100.0
62458;BME280;48509;52.122;5.250;2023-02-15T08:19:36;102618.0;;;3.18;100.0
62458;BME280;48509;52.122;5.250;2023-02-15T08:22:49;102619.0;;;3.34;100.0
62458;BME280;48509;52.122;5.250;2023-02-15T08:24:27;102617.0;;;3.21;100.0
62458;BME280;48509;52.122;5.250;2023-02-15T08:26:05;102616.00000000001;;;3.39;100.0
62458;BME280;48509;52.122;5.250;2023-02-15T08:29:19;102617.0;;;3.59;100.0
62458;BME280;48509;52.122;5.250;2023-02-15T08:31:04;102611.99999999999;;;3.66;100.0
62458;BME280;48509;52.122;5.250;2023-02-15T08:32:40;102619.0;;;3.59;100.0
62458;BME280;48509;52.122;5.250;2023-02-15T08:34:18;102619.0;;;3.87;100.0
62458;BME280;48509;52.122;5.250;2023-02-15T08:37:31;102615.00000000001;;;3.99;100.0
62458;BME280;48509;52.122;5.250;2023-02-15T08:39:08;102607.0;;;4.1;100.0
62458;BME280;48509;52.122;5.250;2023-02-15T08:40:44;102605.0;;;4.2;100.0
62458;BME280;48509;52.122;5.250;2023-02-15T08:43:59;102606.0;;;4.24;100.0
62458;BME280;48509;52.122;5.250;2023-02-15T08:45:36;102593.0;;;4.33;100.0
62458;BME280;48509;52.122;5.250;2023-02-15T08:47:13;102594.0;;;4.43;100.0
62458;BME280;48509;52.122;5.250;2023-02-15T08:48:49;102596.0;;;4.53;100.0
62458;BME280;48509;52.122;5.250;2023-02-15T08:52:02;102595.0;;;4.58;100.0
62458;BME280;48509;52.122;5.250;2023-02-15T08:53:38;102593.0;;;4.74;100.0
62458;BME280;48509;52.122;5.250;2023-02-15T08:55:16;102593.0;;;4.88;100.0
62458;BME280;48509;52.122;5.250;2023-02-15T08:58:29;102592.0;;;4.91;100.0
62458;BME280;48509;52.122;5.250;2023-02-15T09:00:06;102594.0;;;4.96;100.0
62458;BME280;48509;52.122;5.250;2023-02-15T09:01:43;102593.0;;;5.13;100.0
62458;BME280;48509;52.122;5.250;2023-02-15T09:04:56;102591.00000000001;;;5.32;100.0
62458;BME280;48509;52.122;5.250;2023-02-15T09:06:32;102589.00000000001;;;5.34;100.0
62458;BME280;48509;52.122;5.250;2023-02-15T09:08:08;102590.00000000001;;;5.34;100.0
62458;BME280;48509;52.122;5.250;2023-02-15T09:09:45;102591.00000000001;;;5.47;100.0
62458;BME280;48509;52.122;5.250;2023-02-15T09:13:01;102588.00000000001;;;5.62;100.0
62458;BME280;48509;52.122;5.250;2023-02-15T09:14:38;102582.0;;;5.67;100.0
62458;BME280;48509;52.122;5.250;2023-02-15T09:16:16;102580.0;;;5.76;100.0
62458;BME280;48509;52.122;5.250;2023-02-15T09:19:29;102580.0;;;5.74;100.0
62458;BME280;48509;52.122;5.250;2023-02-15T09:21:08;102576.0;;;5.82;100.0
62458;BME280;48509;52.122;5.250;2023-02-15T09:22:44;102580.0;;;5.92;100.0
62458;BME280;48509;52.122;5.250;2023-02-15T09:24:22;102576.0;;;5.86;100.0
62458;BME280;48509;52.122;5.250;2023-02-15T09:27:39;102571.0;;;6.07;100.0
62458;BME280;48509;52.122;5.250;2023-02-15T09:29:16;102577.0;;;6.05;100.0
62458;BME280;48509;52.122;5.250;2023-02-15T09:30:53;102576.0;;;6.09;100.0
62458;BME280;48509;52.122;5.250;2023-02-15T09:34:05;102568.0;;;6.17;100.0
62458;BME280;48509;52.122;5.250;2023-02-15T09:35:41;102566.00000000001;;;6.37;100.0
62458;BME280;48509;52.122;5.250;2023-02-15T09:37:18;102575.0;;;6.47;100.0
62458;BME280;48509;52.122;5.250;2023-02-15T09:40:39;102577.0;;;6.55;100.0
62458;BME280;48509;52.122;5.250;2023-02-15T09:45:09;102580.0;;;6.82;100.0
62458;BME280;48509;52.122;5.250;2023-02-15T09:47:30;102575.0;;;6.75;99.99
62458;BME280;48509;52.122;5.250;2023-02-15T09:49:19;102575.0;;;6.85;100.0
62458;BME280;48509;52.122;5.250;2023-02-15T09:51:17;102575.0;;;7.05;98.76
62458;BME280;48509;52.122;5.250;2023-02-15T09:53:14;102578.0;;;7.13;98.21
62458;BME280;48509;52.122;5.250;2023-02-15T09:55:09;102570.0;;;7.21;96.93
62458;BME280;48509;52.122;5.250;2023-02-15T09:56:55;102574.0;;;7.27;96.4
62458;BME280;48509;52.122;5.250;2023-02-15T09:58:40;102578.0;;;7.32;94.53
62458;BME280;48509;52.122;5.250;2023-02-15T10:00:28;102581.0;;;7.22;95.91
62458;BME280;48509;52.122;5.250;2023-02-15T10:02:23;102582.0;;;7.3;96.33
62458;BME280;48509;52.122;5.250;2023-02-15T10:04:25;102589.00000000001;;;7.42;96.08
62458;BME280;48509;52.122;5.250;2023-02-15T10:08:21;102590.00000000001;;;7.54;95.22
62458;BME280;48509;52.122;5.250;2023-02-15T10:10:32;102586.99999999999;;;7.64;93.42
62458;BME280;48509;52.122;5.250;2023-02-15T10:14:26;102584.99999999999;;;7.66;92.93
62458;BME280;48509;52.122;5.250;2023-02-15T10:16:17;102588.00000000001;;;7.59;91.27
62458;BME280;48509;52.122;5.250;2023-02-15T10:18:21;102590.00000000001;;;7.69;91.51
62458;BME280;48509;52.122;5.250;2023-02-15T10:20:56;102592.0;;;7.96;90.75
62458;BME280;48509;52.122;5.250;2023-02-15T10:24:39;102592.0;;;8.0;91.02
62458;BME280;48509;52.122;5.250;2023-02-15T10:26:42;102586.99999999999;;;8.1;90.32
62458;BME280;48509;52.122;5.250;2023-02-15T10:28:23;102582.0;;;8.09;92.09
62458;BME280;48509;52.122;5.250;2023-02-15T10:30:09;102590.00000000001;;;8.14;89.8
62458;BME280;48509;52.122;5.250;2023-02-15T10:31:49;102590.00000000001;;;8.14;89.01
62458;BME280;48509;52.122;5.250;2023-02-15T10:33:38;102589.00000000001;;;8.25;88.22
62458;BME280;48509;52.122;5.250;2023-02-15T10:37:14;102593.0;;;8.31;87.73
62458;BME280;48509;52.122;5.250;2023-02-15T10:40:02;102595.0;;;8.42;86.6
62458;BME280;48509;52.122;5.250;2023-02-15T10:41:47;102594.0;;;8.53;86.16
62458;BME280;48509;52.122;5.250;2023-02-15T10:45:31;102595.0;;;8.5;86.11
62458;BME280;48509;52.122;5.250;2023-02-15T10:47:31;102592.0;;;8.6;87.81
62458;BME280;48509;52.122;5.250;2023-02-15T10:49:29;102592.0;;;8.71;87.1
62458;BME280;48509;52.122;5.250;2023-02-15T10:51:51;102593.0;;;8.89;85.98
62458;BME280;48509;52.122;5.250;2023-02-15T10:53:57;102591.00000000001;;;8.88;87.64
62458;BME280;48509;52.122;5.250;2023-02-15T10:56:05;102588.00000000001;;;8.98;85.76
62458;BME280;48509;52.122;5.250;2023-02-15T10:57:54;102580.0;;;9.0;85.45
62458;BME280;48509;52.122;5.250;2023-02-15T11:00:02;102584.99999999999;;;9.19;85.64
62458;BME280;48509;52.122;5.250;2023-02-15T11:01:44;102583.0;;;9.25;83.9
62458;BME280;48509;52.122;5.250;2023-02-15T11:03:37;102576.0;;;9.3;84.17
62458;BME280;48509;52.122;5.250;2023-02-15T11:05:27;102572.0;;;9.4;83.94
62458;BME280;48509;52.122;5.250;2023-02-15T11:07:15;102567.0;;;9.44;85.56
62458;BME280;48509;52.122;5.250;2023-02-15T11:08:59;102566.00000000001;;;9.41;85.66
62458;BME280;48509;52.122;5.250;2023-02-15T11:12:22;102558.99999999999;;;9.56;85.79
62458;BME280;48509;52.122;5.250;2023-02-15T11:14:10;102553.0;;;9.6;85.96
62458;BME280;48509;52.122;5.250;2023-02-15T11:15:53;102550.0;;;9.56;84.0
62458;BME280;48509;52.122;5.250;2023-02-15T11:17:36;102550.0;;;9.64;83.33
62458;BME280;48509;52.122;5.250;2023-02-15T11:21:02;102541.00000000001;;;9.64;82.24
62458;BME280;48509;52.122;5.250;2023-02-15T11:22:40;102540.00000000001;;;9.44;82.86
62458;BME280;48509;52.122;5.250;2023-02-15T11:24:19;102542.0;;;9.49;83.08
62458;BME280;48509;52.122;5.250;2023-02-15T11:26:00;102540.00000000001;;;9.64;83.62
62458;BME280;48509;52.122;5.250;2023-02-15T11:29:20;102542.0;;;9.75;83.99
62458;BME280;48509;52.122;5.250;2023-02-15T11:31:09;102530.0;;;9.78;83.44